Weather observations for the past three days for
New Lisbon Mauston Airport
Metric (Imperial)
Date Time (cdt) Wind (kph) Vis. (km) Weather Sky Cond. Temperature (ºC) Relative Humidity Wind Chill (°C) Heat Index (°C) Pressure Precipitation (cm)
Air Dwpt 6 hour altimeter (cm) sea level (mb) 1 hr 3 hr 6 hr
Max. Min.
01 14:15 W 7 16.09 Partly Cloudy SCT039 31.8 22.2 57% 36 76.02 0.0
01 13:55 SW 6 16.09 Partly Cloudy SCT038 32 22.6 58% 36 76.05 0.0
01 13:35 W 11 16.09 Mostly Cloudy SCT036 SCT043 BKN050 31.5 22.6 59% 36 76.05 0.0
01 13:15 Calm 16.09 Mostly Cloudy SCT030 SCT035 BKN050 31.2 23.1 62% 36 76.05 0.0
01 12:55 Calm 16.09 Mostly Cloudy SCT028 BKN038 BKN044 31.1 24.1 31.2 19.9 66% 37 76.05 0.0
01 12:35 Calm 16.09 Mostly Cloudy SCT026 BKN034 BKN042 30.3 23.7 68% 35 76.05 0.0
01 12:15 S 6 16.09 Partly Cloudy SCT026 SCT034 31 24.5 68% 37 76.07 0.0
01 11:55 Calm 16.09 Partly Cloudy SCT021 29.6 24.1 72% 35 76.07 0.0
01 11:35 Calm 16.09 Partly Cloudy SCT021 29.9 24.2 72% 35 76.07 0.0
01 11:15 Calm 16.09 Fair CLR 29.1 24.3 75% 34 76.1 0.0
01 10:55 Calm 16.09 Fair CLR 28.3 24.1 78% 33 76.1 0.0
01 10:35 Calm 16.09 Fair CLR 27.5 24 81% 31 76.1 0.0
01 10:15 NW 6 16.09 Fair CLR 27.2 23.9 82% 30 76.1 0.0
01 09:55 NW 6 16.09 Partly Cloudy SCT005 26.6 23.8 85% 29 76.1 0.0
01 09:35 N 6 16.09 Partly Cloudy SCT005 26 23.6 87% 28 76.1 0.0
01 09:15 Calm 16.09 Partly Cloudy SCT005 25.5 23.2 87% 27 76.1 0.0
01 08:55 Calm 16.09 Partly Cloudy SCT005 25 23.3 90% 26 76.1 0.0
01 08:35 Calm 11.27 Fair CLR 23.7 23 96% 76.12 0.0
01 08:15 Calm 11.27 Fair CLR 23 22.4 96% 76.12 0.0
01 07:55 Calm 6.44 Fog/Mist CLR 22.4 21.8 96% 76.1 0.0
01 07:35 Calm 4.83 Fog/Mist CLR 21.8 21.3 97% 76.1 0.0
01 07:15 Calm 8.05 Fog/Mist CLR 20.4 19.9 97% 76.07 0.0
01 06:55 Calm 3.22 Fog/Mist CLR 19.8 19.3 22.5 19.6 97% 76.05 0.0
01 06:35 Calm 4.83 Fog/Mist SCT003 19.6 19.1 97% 76.05 0.0
01 06:15 Calm 1.21 Fog/Mist BKN003 19.8 19.3 97% 76.05 0.0
01 05:55 Calm 4.83 Fog/Mist SCT005 20 19.4 96% 76.02 0.0
01 05:35 Calm 1.61 Fog/Mist BKN003 20.1 19.6 97% 76.02 0.0
01 05:15 Calm 1.21 Fog/Mist BKN003 20.3 19.7 96% 76.02 0.0
01 04:55 Calm 0.80 Fog OVC003 20.4 19.8 96% 76.02 0.0
01 04:35 Calm 0.40 Fog OVC003 20.6 19.9 96% 76.02 0.0
01 04:15 Calm 6.44 Fog/Mist BKN003 20.6 20 96% 76.02 0.0
01 03:55 Calm 4.83 Fog/Mist CLR 20.5 19.8 96% 76.02 0.0
01 03:30 Calm 8.05 Fog/Mist CLR 20.8 20.1 96% 76.02 0.0
01 03:15 Calm 11.27 Fair CLR 21.1 20.4 96% 76 0.0
01 02:55 Calm 8.05 Fog/Mist CLR 21 20.4 96% 76 0.0
01 02:35 Calm 0.40 Fog VV002 21.7 21.1 96% 76.02 0.0
01 02:15 Calm 3.22 Fog/Mist CLR 21.8 21.1 96% 76 0.0
01 01:55 Calm 11.27 Partly Cloudy SCT029 22.1 21.4 96% 76.02 0.0
01 01:35 Calm 11.27 Partly Cloudy SCT029 22.1 21.3 95% 76 0.0
01 01:15 Calm 8.05 Fog/Mist CLR 22.1 21.3 95% 76 0.0
01 00:55 Calm 11.27 Fair CLR 22.5 21.6 29 22.5 95% 76 0.0
01 00:35 Calm 11.27 Partly Cloudy SCT035 23 22 94% 76 0.0
01 00:15 Calm 16.09 Mostly Cloudy BKN035 23.6 22.4 93% 76 0.0
31 23:55 Calm 16.09 Partly Cloudy SCT035 24.1 22.2 89% 24 75.97 0.0
31 23:35 SW 6 16.09 Fair CLR 26.1 23 83% 28 75.97 0.0
31 23:15 SW 9 16.09 Fair CLR 26.1 23 83% 28 75.97 0.0
31 22:55 SW 7 16.09 Fair CLR 26.2 22.8 82% 28 75.95 0.0
31 22:35 SW 7 16.09 Fair CLR 26 22.7 82% 28 75.97 0.0
31 22:15 SW 11 16.09 Fair CLR 26.1 22.6 81% 28 76 0.0
31 21:55 SW 9 16.09 Fair CLR 26.1 22.6 81% 28 75.97 0.0
31 21:35 S 7 16.09 Fair CLR 26.2 22.7 81% 28 75.97 0.0
31 21:15 S 6 16.09 Fair CLR 25.5 22.7 85% 27 76 0.0
31 20:55 S 6 16.09 Fair CLR 25.1 23.1 89% 26 75.97 0.0
31 20:35 Calm 16.09 Fair CLR 24.2 23.2 94% 24 75.95 0.0
31 20:15 Calm 16.09 Fair CLR 25 23.5 91% 26 75.95 0.0
31 19:55 Calm 16.09 Fair CLR 25.5 23.7 90% 27 75.92 0.0
31 19:35 Calm 16.09 Fair CLR 27.5 24 81% 31 75.95 0.0
31 19:15 Calm 16.09 Fair CLR 28 24 79% 32 75.9 0.0
31 18:35 SW 6 16.09 Fair CLR 29.5 23.9 72% 34 75.9 0.0
31 18:15 Calm 16.09 Fair CLR 29.1 23.9 74% 34 75.9 0.0
31 17:55 SW 6 16.09 Fair CLR 29 23.9 74% 33 75.87 0.0
31 17:35 Calm 16.09 Fair CLR 29.3 24 73% 34 75.87 0.0
31 17:15 Calm 16.09 Fair CLR 29.6 24 72% 35 75.84 0.0
31 16:55 S 6 16.09 Fair CLR 29.8 23.8 70% 35 75.84 0.0
31 16:35 S 6 16.09 Fair CLR 30.1 23.7 69% 35 75.82 0.0
31 16:15 S 7 16.09 Fair CLR 30.3 24.4 71% 36 75.79 0.0
31 15:55 Calm 16.09 Fair CLR 30.6 24 68% 36 75.79 0.0
31 15:35 S 6 16.09 Partly Cloudy SCT036 SCT055 SCT070 30.4 23.5 67% 35 75.82 0.0
31 15:15 S 7 16.09 Fair CLR 31.7 23.7 63% 37 75.84 0.0
31 14:55 S 11 16.09 Fair CLR 31.2 23.2 62% 36 75.82 0.0
31 14:35 S 7 16.09 Fair CLR 32.4 23.2 58% 37 75.82 0.0
31 14:15 Calm 16.09 Fair CLR 31.3 23.1 62% 36 75.84 0.0
31 13:55 W 7 16.09 Fair CLR 31.6 22.8 60% 36 75.84 0.0
31 13:35 SW 6 16.09 Fair CLR 31.3 22.7 60% 36 75.84 0.0
31 13:15 W 7 16.09 Fair CLR 31 22.7 61% 35 75.84 0.0
31 12:55 W 9 16.09 Fair CLR 30.9 22.8 30.9 20.6 62% 35 75.87 0.0
31 12:35 SW 9 16.09 Fair CLR 30.1 22.9 65% 34 75.9 0.0
31 12:15 SW 9 16.09 Fair CLR 29.3 22.3 66% 33 75.9 0.0
31 11:55 W 7 16.09 Fair CLR 29.2 22 65% 32 75.9 0.0
31 11:35 W 6 16.09 Fair CLR 28.6 21.8 67% 31 75.87 0.0
31 11:15 SW 7 16.09 Fair CLR 28.4 21.8 67% 31 75.9 0.0
31 10:55 W 9 16.09 Fair CLR 28.1 21.5 67% 31 75.87 0.0
31 10:35 W 7 16.09 Fair CLR 27.7 21.4 69% 30 75.84 0.0
31 10:15 SW 9 16.09 Fair CLR 27.3 21 69% 29 75.84 0.0
31 09:55 SW 9 16.09 Fair CLR 27.1 21 69% 29 75.82 0.0
31 09:35 W 6 16.09 Fair CLR 26.9 20.8 69% 29 75.84 0.0
31 09:15 SW 6 16.09 Fair CLR 26.2 20.3 70% 28 75.82 0.0
31 08:55 Calm 16.09 Fair CLR 25.5 20 72% 27 75.82 0.0
31 08:35 SW 6 16.09 Fair CLR 25.2 19.9 73% 26 75.82 0.0
31 08:15 Calm 16.09 Fair CLR 25 19.8 73% 26 75.79 0.0
31 07:55 Calm 16.09 Fair CLR 24.6 19.8 75% 25 75.79 0.0
31 07:35 S 7 16.09 Fair CLR 24.1 19.6 76% 25 75.77 0.0
31 07:15 Calm 16.09 Fair CLR 21.9 19.5 86% 75.77 0.0
31 06:55 S 7 16.09 Fair CLR 20.5 19.1 22.5 20.1 92% 75.77 0.0
31 06:35 Calm 16.09 Fair CLR 20.4 19.1 92% 75.77 0.0
31 06:15 Calm 16.09 Fair CLR 22 19.1 84% 75.77 0.0
31 05:55 Calm 16.09 Fair CLR 21.8 19.1 85% 75.77 0.0
31 05:35 Calm 16.09 Fair CLR 22 19.2 84% 75.74 0.0
31 05:15 S 9 16.09 Fair CLR 22 19.5 86% 75.77 0.0
31 04:55 S 9 16.09 Fair CLR 21.8 19.5 87% 75.77 0.0
31 04:35 S 11 16.09 Partly Cloudy SCT075 22.1 19.5 85% 75.77 0.0
31 04:15 S 13 16.09 Mostly Cloudy BKN075 22.5 19.5 83% 75.79 0.0
31 03:55 S 13 16.09 Mostly Cloudy BKN075 22.2 19.6 85% 75.82 0.0
31 03:35 S 11 16.09 Mostly Cloudy BKN075 22.4 19.5 84% 75.79 0.0
31 03:15 S 11 16.09 Mostly Cloudy BKN075 22.3 19.6 85% 75.79 0.0
31 02:55 S 13 16.09 Mostly Cloudy BKN075 22.5 19.6 84% 75.82 0.0
31 02:35 S 15 16.09 Overcast OVC075 22.5 19.6 84% 75.82 0.0
31 02:15 S 13 16.09 Overcast OVC075 22.1 19.7 86% 75.84 0.0
31 01:55 S 15 16.09 Overcast OVC075 22 19.7 87% 75.84 0.0
31 01:35 S 15 16.09 Mostly Cloudy SCT075 BKN085 21.9 19.6 87% 75.87 0.0
31 01:15 S 13 16.09 Overcast SCT075 OVC085 21.4 19.7 90% 75.9 0.0
31 00:55 SE 7 16.09 Mostly Cloudy BKN080 21 19.8 24.5 20.7 93% 75.92 0.0
31 00:35 SE 9 16.09 Partly Cloudy SCT080 SCT090 20.8 19.9 95% 75.95 0.0
31 00:15 SE 7 11.27 Mostly Cloudy SCT070 BKN080 20.7 20 96% 75.95 0.0
30 23:55 S 7 11.27 Partly Cloudy SCT070 20.7 20 96% 75.97 0.0
30 23:35 SE 7 11.27 Fair CLR 20.8 20.1 96% 75.97 0.0
30 23:15 SE 7 11.27 Fair CLR 20.9 20.1 95% 76 0.0
30 22:50 SE 6 11.27 Fair CLR 21 20.3 96% 76.02 0.0
30 22:35 S 7 8.05 Fog/Mist CLR 21.1 20.4 96% 76.05 0.0
30 22:15 Calm 11.27 Fair CLR 21.1 20.2 95% 76.07 0.0
30 21:55 S 7 16.09 Fair CLR 21.7 20.6 94% 76.05 0.0
30 21:35 S 7 16.09 Partly Cloudy SCT120 22 20.7 92% 76.05 0.0
30 21:15 S 7 16.09 Partly Cloudy SCT120 22 20.7 92% 76.02 0.0
30 20:55 SE 6 16.09 Partly Cloudy SCT120 22.1 21 94% 76 0.0
30 20:35 S 6 6.44 Light Rain SCT040 SCT060 SCT065 22.6 20.9 90% 75.97 0.0
30 20:15 Calm 16.09 Fair CLR 23.2 20.5 85% 75.95 0.0
30 19:55 SE 6 16.09 Fair CLR 23.5 20.5 83% 75.9 0.0
30 19:35 S 11 16.09 Fair CLR 23.8 20.5 82% 75.9 0.0
30 19:15 SE 7 16.09 Fair CLR 24.3 20.5 79% 25 75.9 0.0
30 18:55 SE 9 16.09 Fair CLR 24.5 20.5 27.7 24.5 78% 25 75.9 0.0
30 18:35 SE 7 16.09 Fair CLR 25 20.5 76% 26 75.9 0.0
30 18:15 S 13 16.09 Fair CLR 25.7 20.6 74% 27 75.9 0.0
30 17:55 S 7 16.09 Fair CLR 26.5 20.9 71% 28 75.9 0.0
30 17:35 S 7 16.09 Fair CLR 26 21 74% 27 75.87 0.0
30 17:15 S 6 16.09 Fair CLR 26.6 20.4 69% 28 75.84 0.0
30 16:55 S 7 16.09 Fair CLR 27.3 20.9 68% 29 75.87 0.0
30 16:35 SW 7 16.09 Fair CLR 26.9 20.5 68% 29 75.87 0.0
30 16:15 SW 6 16.09 Fair CLR 27.2 20.7 68% 29 75.87 0.0
30 15:55 SW 11 16.09 Fair CLR 27.2 20.4 66% 29 75.87 0.0
30 15:35 S 9 16.09 Fair CLR 27.2 20.4 66% 29 75.9 0.0
30 15:15 S 11 16.09 Fair CLR 26.8 20.1 67% 28 75.87 0.0
30 14:55 S 11 16.09 Fair CLR 26.5 20.1 68% 28 75.87 0.0
30 14:35 S 11 16.09 Fair CLR 26.6 19.8 66% 28 75.87 0.0
30 14:15 S 9 16.09 Fair CLR 26.4 19.9 68% 28 75.87 0.0
30 13:55 S 7 16.09 Fair CLR 26.1 20 69% 27 75.9 0.0
30 13:35 S 6 16.09 Fair CLR 25.6 19.3 68% 27 75.9 0.0
30 13:15 SW 11 16.09 Fair CLR 25.6 19.6 70% 27 75.95 0.0
30 12:55 S 9 16.09 Fair CLR 25.7 19.6 27.5 20.5 69% 27 75.97 0.0
30 12:35 S 13 16.09 Fair CLR 26 19.7 68% 27 75.95 0.0
30 12:15 SW 9 16.09 Fair CLR 26.2 19.5 67% 27 75.92 0.0
30 11:55 S 9 16.09 Fair CLR 26.6 19.5 65% 28 75.84 0.0
30 11:35 SW 9 16.09 Fair CLR 26.7 19.2 64% 28 75.84 0.0
30 11:15 S 7 16.09 Fair CLR 27.1 19.3 62% 28 75.84 0.0
30 10:55 SW 9 16.09 Fair CLR 26.8 19 62% 28 75.87 0.0
30 10:35 S 9 16.09 Fair CLR 26.3 19.1 65% 27 75.87 0.0
30 10:15 S 7 16.09 Fair CLR 25.7 18.9 66% 27 75.87 0.0
30 09:55 S 6 16.09 Fair CLR 25.1 18.7 68% 26 75.87 0.0
30 09:35 S 7 16.09 Fair CLR 24.6 18.5 69% 26 75.84 0.0
30 09:15 S 7 16.09 Fair CLR 24.2 18.8 72% 25 75.84 0.0
30 08:55 S 6 16.09 Fair CLR 23.2 18.5 75% 75.84 0.0
30 08:30 SE 9 16.09 Fair CLR 23 18.3 75% 75.84 0.0
30 08:15 SE 7 16.09 Fair CLR 22.6 18.4 77% 75.84 0.0
30 07:55 S 7 16.09 Fair CLR 21.8 18.1 80% 75.84 0.0
30 07:35 SE 9 16.09 Fair CLR 21 18 83% 75.84 0.0
30 07:15 Calm 16.09 Fair CLR 20.7 17.8 84% 75.84 0.0
30 06:55 S 9 16.09 Fair CLR 20.5 17.8 20.5 18.6 85% 75.84 0.0
30 06:35 S 11 16.09 Fair CLR 20.5 17.9 85% 75.84 0.0
30 06:15 S 11 16.09 Fair CLR 20.2 17.9 87% 75.84 0.0
30 05:55 S 11 16.09 Fair CLR 20 18 88% 75.84 0.0
30 05:35 Calm 16.09 Fair CLR 19.3 18 92% 75.84 0.0
30 05:15 Calm 16.09 Fair CLR 19.1 18 93% 75.84 0.0
30 04:55 Calm 16.09 Fair CLR 19.3 18 92% 75.84 0.0
30 04:35 Calm 16.09 Fair CLR 19.5 18.1 92% 75.87 0.0
30 04:15 Calm 11.27 Fair CLR 18.7 18 96% 75.87 0.0
30 03:55 Calm 11.27 Mostly Cloudy BKN075 18.9 18 95% 75.9 0.0
30 03:35 Calm 16.09 Mostly Cloudy BKN075 18.8 17.9 95% 75.9 0.0
30 03:15 NE 6 11.27 Partly Cloudy SCT075 18.6 17.7 95% 75.9 0.0
30 02:55 Calm 16.09 Partly Cloudy SCT075 18.7 17.8 95% 75.9 0.0
30 02:35 Calm 11.27 Mostly Cloudy BKN075 18.7 17.9 95% 75.9 0.0
30 02:15 Calm 16.09 Partly Cloudy SCT065 SCT075 18.9 18 95% 75.95 0.0
30 01:55 Calm 11.27 Partly Cloudy SCT065 SCT075 19 18 94% 75.95 0.0
30 01:35 Calm 16.09 Mostly Cloudy BKN070 19 18.1 95% 75.97 0.0
30 01:15 Calm 11.27 Mostly Cloudy BKN060 18.8 18 95% 75.97 0.0
30 00:55 Calm 11.27 Partly Cloudy SCT060 19 18.1 22.5 18.6 95% 76 0.0 0.03
30 00:35 Calm 11.27 Partly Cloudy SCT060 19 18.1 95% 76 0.0
30 00:15 Calm 16.09 Partly Cloudy SCT060 19.1 18.1 94% 76.02 0.0
29 23:55 Calm 16.09 Partly Cloudy SCT060 19 18 94% 76.02 0.0
29 23:35 Calm 16.09 Mostly Cloudy BKN060 19.1 18.1 94% 76.02 0.0
29 23:15 Calm 11.27 Mostly Cloudy BKN060 18.7 18 96% 76.02 0.0
29 22:55 Calm 11.27 Light Rain SCT060 18.6 17.9 96% 76.02 0.0
29 22:35 Calm 16.09 Partly Cloudy SCT060 18.6 17.7 95% 76.02 0.0
29 22:15 Calm 16.09 Partly Cloudy SCT060 18.8 17.9 95% 76.02 0.0
29 21:55 Calm 16.09 Fair CLR 19.1 18.1 94% 76.05 0.0 0.03
29 21:30 Calm 16.09 Light Rain SCT060 SCT080 SCT120 19.1 18 93% 76.02 0.0
29 21:15 Calm 16.09 Light Rain SCT060 SCT080 SCT090 18.9 17.9 94% 76.02 0.0
29 20:55 Calm 16.09 Fair CLR 18.9 18 95% 76.02 0.0
29 20:35 Calm 16.09 Fair CLR 19 18.1 95% 76 0.0
29 20:15 Calm 16.09 Fair CLR 19.2 18.2 94% 76 0.0
29 19:50 Calm 16.09 Fair CLR 20 18.4 91% 75.97 0.0 0.03
29 19:35 Calm 16.09 Fair CLR 21 18.2 84% 75.97 0.0 0.03
29 19:15 E 6 16.09 Fair CLR 22.2 18.1 78% 75.97 0.0 0.03
29 18:55 SE 6 16.09 Fair CLR 22.5 18.4 24.5 19 78% 75.95 0.0 0.05
29 18:35 S 7 16.09 Partly Cloudy SCT002 23.1 18.1 74% 75.97 0.0
29 18:15 S 11 16.09 Partly Cloudy SCT002 23.9 18.2 71% 25 75.97 0.0
29 17:55 S 15 16.09 Fair CLR 24.1 18.2 70% 25 75.95 0.0
29 17:35 S 11 16.09 Fair CLR 24.5 18.3 68% 25 75.95 0.0
29 17:15 SE 15 G 28 16.09 Fair CLR 23.2 18 73% 75.97 0.0
29 16:55 S 19 G 30 16.09 Fair CLR 23.6 18.1 71% 75.97 0.0
29 16:35 SE 17 16.09 Fair CLR 23.4 18.1 72% 76 0.0
29 16:15 S 20 G 33 16.09 Partly Cloudy SCT100 23.3 18 72% 76.02 0.0
29 15:55 SE 26 G 31 16.09 Overcast OVC100 23 18 74% 76.02 0.0 0.03 0.05
29 15:35 S 19 16.09 Overcast OVC100 21.5 17.5 78% 76.07 0.0 0.03
29 15:15 SE 15 16.09 Overcast OVC100 20.7 17.5 82% 76.1 0.0 0.03
29 14:55 SE 9 16.09 Overcast OVC100 19.6 17.5 88% 76.12 0.0
29 14:35 SE 11 G 28 11.27 Light Drizzle OVC090 19.1 17.6 91% 76.15 0.0
Date Time (cdt) Wind (kph) Vis. (km) Weather Sky Cond. Air Dwpt Max. Min. Relative Humidity Wind Chill (°C) Heat Index (°C) altimeter (cm) sea level (mb) 1 hr 3 hr 6 hr
6 hour
Temperature (ºC) Pressure Precipitation (cm)